sensor_id;sensor_type;location;lat;lon;timestamp;pressure;altitude;pressure_sealevel;temperature;humidity
22688;BME280;11511;51.514;7.080;2022-07-24T00:00:52;101375.28;;;15.51;100.00
22688;BME280;11511;51.514;7.080;2022-07-24T00:03:17;101369.97;;;15.51;100.00
22688;BME280;11511;51.514;7.080;2022-07-24T00:05:44;101368.53;;;15.44;100.00
22688;BME280;11511;51.514;7.080;2022-07-24T00:08:09;101362.22;;;15.47;100.00
22688;BME280;11511;51.514;7.080;2022-07-24T00:10:36;101363.22;;;15.44;100.00
22688;BME280;11511;51.514;7.080;2022-07-24T00:13:02;101363.53;;;15.37;100.00
22688;BME280;11511;51.514;7.080;2022-07-24T00:15:28;101359.16;;;15.36;100.00
22688;BME280;11511;51.514;7.080;2022-07-24T00:17:54;101360.38;;;15.29;100.00
22688;BME280;11511;51.514;7.080;2022-07-24T00:20:20;101354.34;;;15.25;100.00
22688;BME280;11511;51.514;7.080;2022-07-24T00:22:47;101359.00;;;15.20;100.00
22688;BME280;11511;51.514;7.080;2022-07-24T00:25:13;101353.81;;;15.17;100.00
22688;BME280;11511;51.514;7.080;2022-07-24T00:27:38;101353.16;;;15.12;100.00
22688;BME280;11511;51.514;7.080;2022-07-24T00:30:04;101349.75;;;15.08;100.00
22688;BME280;11511;51.514;7.080;2022-07-24T00:32:30;101349.91;;;15.05;100.00
22688;BME280;11511;51.514;7.080;2022-07-24T00:34:56;101346.59;;;15.00;100.00
22688;BME280;11511;51.514;7.080;2022-07-24T00:37:22;101348.31;;;15.01;100.00
22688;BME280;11511;51.514;7.080;2022-07-24T00:39:48;101337.91;;;14.97;100.00
22688;BME280;11511;51.514;7.080;2022-07-24T00:42:14;101342.47;;;14.93;100.00
22688;BME280;11511;51.514;7.080;2022-07-24T00:44:39;101338.84;;;14.96;100.00
22688;BME280;11511;51.514;7.080;2022-07-24T00:47:05;101340.75;;;14.92;100.00
22688;BME280;11511;51.514;7.080;2022-07-24T00:49:31;101335.63;;;14.87;100.00
22688;BME280;11511;51.514;7.080;2022-07-24T00:51:57;101342.78;;;14.85;100.00
22688;BME280;11511;51.514;7.080;2022-07-24T00:54:23;101334.91;;;14.84;100.00
22688;BME280;11511;51.514;7.080;2022-07-24T00:56:51;101337.97;;;14.75;100.00
22688;BME280;11511;51.514;7.080;2022-07-24T00:59:19;101337.56;;;14.84;100.00
22688;BME280;11511;51.514;7.080;2022-07-24T01:01:46;101345.69;;;14.79;100.00
22688;BME280;11511;51.514;7.080;2022-07-24T01:04:12;101344.91;;;14.77;100.00
22688;BME280;11511;51.514;7.080;2022-07-24T01:06:43;101347.78;;;14.73;100.00
22688;BME280;11511;51.514;7.080;2022-07-24T01:09:10;101349.63;;;14.71;100.00
22688;BME280;11511;51.514;7.080;2022-07-24T01:11:36;101348.69;;;14.72;100.00
22688;BME280;11511;51.514;7.080;2022-07-24T01:14:02;101348.56;;;14.75;100.00
22688;BME280;11511;51.514;7.080;2022-07-24T01:16:28;101344.66;;;14.83;100.00
22688;BME280;11511;51.514;7.080;2022-07-24T01:18:54;101349.16;;;14.81;100.00
22688;BME280;11511;51.514;7.080;2022-07-24T01:21:20;101351.34;;;14.72;100.00
22688;BME280;11511;51.514;7.080;2022-07-24T01:23:45;101341.66;;;14.71;100.00
22688;BME280;11511;51.514;7.080;2022-07-24T01:26:11;101344.44;;;14.68;100.00
22688;BME280;11511;51.514;7.080;2022-07-24T01:28:37;101341.25;;;14.60;100.00
22688;BME280;11511;51.514;7.080;2022-07-24T01:31:03;101341.88;;;14.86;100.00
22688;BME280;11511;51.514;7.080;2022-07-24T01:33:29;101339.88;;;14.92;100.00
22688;BME280;11511;51.514;7.080;2022-07-24T01:35:54;101339.03;;;14.91;100.00
22688;BME280;11511;51.514;7.080;2022-07-24T01:38:21;101340.09;;;14.87;100.00
22688;BME280;11511;51.514;7.080;2022-07-24T01:40:46;101328.75;;;15.04;99.25
22688;BME280;11511;51.514;7.080;2022-07-24T01:43:12;101336.22;;;15.14;97.67
22688;BME280;11511;51.514;7.080;2022-07-24T01:45:38;101332.19;;;15.06;98.42
22688;BME280;11511;51.514;7.080;2022-07-24T01:48:04;101336.50;;;14.88;100.00
22688;BME280;11511;51.514;7.080;2022-07-24T01:50:30;101335.91;;;14.81;100.00
22688;BME280;11511;51.514;7.080;2022-07-24T01:52:56;101328.28;;;14.74;100.00
22688;BME280;11511;51.514;7.080;2022-07-24T01:55:22;101324.97;;;14.69;100.00
22688;BME280;11511;51.514;7.080;2022-07-24T01:57:48;101320.72;;;14.65;100.00
22688;BME280;11511;51.514;7.080;2022-07-24T02:00:15;101322.44;;;14.66;100.00
22688;BME280;11511;51.514;7.080;2022-07-24T02:02:43;101322.75;;;14.58;100.00
22688;BME280;11511;51.514;7.080;2022-07-24T02:05:10;101325.53;;;14.55;100.00
22688;BME280;11511;51.514;7.080;2022-07-24T02:07:39;101315.78;;;14.55;100.00
22688;BME280;11511;51.514;7.080;2022-07-24T02:10:05;101323.00;;;14.52;100.00
22688;BME280;11511;51.514;7.080;2022-07-24T02:12:31;101324.06;;;14.48;100.00
22688;BME280;11511;51.514;7.080;2022-07-24T02:14:57;101330.31;;;14.47;100.00
22688;BME280;11511;51.514;7.080;2022-07-24T02:17:22;101323.34;;;14.44;100.00
22688;BME280;11511;51.514;7.080;2022-07-24T02:19:48;101321.63;;;14.43;100.00
22688;BME280;11511;51.514;7.080;2022-07-24T02:22:14;101328.69;;;14.43;100.00
22688;BME280;11511;51.514;7.080;2022-07-24T02:24:40;101315.53;;;14.40;100.00
22688;BME280;11511;51.514;7.080;2022-07-24T02:27:06;101313.13;;;14.34;100.00
22688;BME280;11511;51.514;7.080;2022-07-24T02:29:32;101316.59;;;14.36;100.00
22688;BME280;11511;51.514;7.080;2022-07-24T02:31:59;101317.56;;;14.33;100.00
22688;BME280;11511;51.514;7.080;2022-07-24T02:34:24;101314.00;;;14.34;100.00
22688;BME280;11511;51.514;7.080;2022-07-24T02:36:51;101309.00;;;14.27;100.00
22688;BME280;11511;51.514;7.080;2022-07-24T02:39:17;101316.81;;;14.30;100.00
22688;BME280;11511;51.514;7.080;2022-07-24T02:41:44;101308.00;;;14.29;100.00
22688;BME280;11511;51.514;7.080;2022-07-24T02:44:09;101308.06;;;14.28;100.00
22688;BME280;11511;51.514;7.080;2022-07-24T02:46:36;101305.69;;;14.21;100.00
22688;BME280;11511;51.514;7.080;2022-07-24T02:49:02;101307.22;;;14.27;100.00
22688;BME280;11511;51.514;7.080;2022-07-24T02:51:28;101305.19;;;14.34;100.00
22688;BME280;11511;51.514;7.080;2022-07-24T02:53:53;101290.53;;;14.47;100.00
22688;BME280;11511;51.514;7.080;2022-07-24T02:56:19;101293.38;;;14.42;100.00
22688;BME280;11511;51.514;7.080;2022-07-24T02:58:45;101291.81;;;14.37;100.00
22688;BME280;11511;51.514;7.080;2022-07-24T03:01:11;101295.56;;;14.31;100.00
22688;BME280;11511;51.514;7.080;2022-07-24T03:03:36;101295.56;;;14.31;100.00
22688;BME280;11511;51.514;7.080;2022-07-24T03:06:02;101296.56;;;14.29;100.00
22688;BME280;11511;51.514;7.080;2022-07-24T03:08:30;101300.00;;;14.31;100.00
22688;BME280;11511;51.514;7.080;2022-07-24T03:10:56;101289.47;;;14.29;100.00
22688;BME280;11511;51.514;7.080;2022-07-24T03:13:22;101289.81;;;14.21;100.00
22688;BME280;11511;51.514;7.080;2022-07-24T03:15:47;101294.81;;;14.28;100.00
22688;BME280;11511;51.514;7.080;2022-07-24T03:18:13;101291.19;;;14.30;100.00
22688;BME280;11511;51.514;7.080;2022-07-24T03:20:39;101291.44;;;14.24;100.00
22688;BME280;11511;51.514;7.080;2022-07-24T03:23:04;101294.28;;;14.19;100.00
22688;BME280;11511;51.514;7.080;2022-07-24T03:25:30;101297.41;;;14.29;100.00
22688;BME280;11511;51.514;7.080;2022-07-24T03:27:56;101282.38;;;14.30;100.00
22688;BME280;11511;51.514;7.080;2022-07-24T03:30:22;101284.72;;;14.37;100.00
22688;BME280;11511;51.514;7.080;2022-07-24T03:32:48;101283.91;;;14.35;100.00
22688;BME280;11511;51.514;7.080;2022-07-24T03:35:14;101282.13;;;14.36;100.00
22688;BME280;11511;51.514;7.080;2022-07-24T03:37:40;101281.31;;;14.34;100.00
22688;BME280;11511;51.514;7.080;2022-07-24T03:40:06;101287.44;;;14.36;100.00
22688;BME280;11511;51.514;7.080;2022-07-24T03:42:32;101290.13;;;14.34;100.00
22688;BME280;11511;51.514;7.080;2022-07-24T03:44:58;101295.75;;;14.27;100.00
22688;BME280;11511;51.514;7.080;2022-07-24T03:47:23;101297.59;;;14.24;100.00
22688;BME280;11511;51.514;7.080;2022-07-24T03:49:49;101291.66;;;14.19;100.00
22688;BME280;11511;51.514;7.080;2022-07-24T03:52:14;101295.69;;;14.28;100.00
22688;BME280;11511;51.514;7.080;2022-07-24T03:54:40;101294.47;;;14.37;100.00
22688;BME280;11511;51.514;7.080;2022-07-24T03:57:06;101305.91;;;14.37;100.00
22688;BME280;11511;51.514;7.080;2022-07-24T03:59:32;101304.13;;;14.38;100.00
22688;BME280;11511;51.514;7.080;2022-07-24T04:01:58;101300.56;;;14.39;100.00
22688;BME280;11511;51.514;7.080;2022-07-24T04:04:24;101303.16;;;14.40;100.00
22688;BME280;11511;51.514;7.080;2022-07-24T04:06:49;101301.22;;;14.45;100.00
22688;BME280;11511;51.514;7.080;2022-07-24T04:09:15;101304.59;;;14.49;100.00
22688;BME280;11511;51.514;7.080;2022-07-24T04:11:40;101303.56;;;14.51;100.00
22688;BME280;11511;51.514;7.080;2022-07-24T04:14:06;101307.84;;;14.55;100.00
22688;BME280;11511;51.514;7.080;2022-07-24T04:16:33;101296.00;;;14.64;100.00
22688;BME280;11511;51.514;7.080;2022-07-24T04:18:59;101302.47;;;14.77;100.00
22688;BME280;11511;51.514;7.080;2022-07-24T04:21:25;101299.91;;;14.96;100.00
22688;BME280;11511;51.514;7.080;2022-07-24T04:23:50;101291.78;;;15.19;100.00
22688;BME280;11511;51.514;7.080;2022-07-24T04:26:16;101293.06;;;15.50;100.00
22688;BME280;11511;51.514;7.080;2022-07-24T04:28:43;101292.28;;;15.67;100.00
22688;BME280;11511;51.514;7.080;2022-07-24T04:31:09;101294.50;;;16.13;98.03
22688;BME280;11511;51.514;7.080;2022-07-24T04:33:36;101290.63;;;16.38;96.04
22688;BME280;11511;51.514;7.080;2022-07-24T04:36:04;101301.28;;;16.19;96.36
22688;BME280;11511;51.514;7.080;2022-07-24T04:38:31;101296.31;;;15.75;99.52
22688;BME280;11511;51.514;7.080;2022-07-24T04:40:57;101290.94;;;15.58;100.00
22688;BME280;11511;51.514;7.080;2022-07-24T04:43:23;101289.31;;;15.54;100.00
22688;BME280;11511;51.514;7.080;2022-07-24T04:45:49;101289.91;;;15.61;100.00
22688;BME280;11511;51.514;7.080;2022-07-24T04:48:14;101287.69;;;15.70;100.00
22688;BME280;11511;51.514;7.080;2022-07-24T04:50:40;101294.84;;;15.87;100.00
22688;BME280;11511;51.514;7.080;2022-07-24T04:53:06;101289.84;;;16.00;100.00
22688;BME280;11511;51.514;7.080;2022-07-24T04:55:31;101294.72;;;16.09;100.00
22688;BME280;11511;51.514;7.080;2022-07-24T04:57:57;101290.22;;;16.28;99.38
22688;BME280;11511;51.514;7.080;2022-07-24T05:00:24;101286.41;;;16.51;96.31
22688;BME280;11511;51.514;7.080;2022-07-24T05:02:50;101288.47;;;16.80;89.28
22688;BME280;11511;51.514;7.080;2022-07-24T05:05:16;101291.81;;;17.01;87.21
22688;BME280;11511;51.514;7.080;2022-07-24T05:07:41;101294.22;;;17.23;84.41
22688;BME280;11511;51.514;7.080;2022-07-24T05:10:08;101285.31;;;17.40;82.72
22688;BME280;11511;51.514;7.080;2022-07-24T05:12:34;101297.88;;;17.53;81.59
22688;BME280;11511;51.514;7.080;2022-07-24T05:15:00;101288.84;;;17.73;80.31
22688;BME280;11511;51.514;7.080;2022-07-24T05:17:25;101288.66;;;17.92;78.93
22688;BME280;11511;51.514;7.080;2022-07-24T05:19:51;101287.50;;;18.12;77.57
22688;BME280;11511;51.514;7.080;2022-07-24T05:22:16;101288.47;;;18.26;77.58
22688;BME280;11511;51.514;7.080;2022-07-24T05:24:42;101286.94;;;18.37;76.77
22688;BME280;11511;51.514;7.080;2022-07-24T05:27:07;101293.03;;;18.54;76.88
22688;BME280;11511;51.514;7.080;2022-07-24T05:29:33;101299.63;;;18.79;75.50
22688;BME280;11511;51.514;7.080;2022-07-24T05:31:59;101299.75;;;19.06;73.74
22688;BME280;11511;51.514;7.080;2022-07-24T05:34:25;101306.91;;;19.05;73.99
22688;BME280;11511;51.514;7.080;2022-07-24T05:36:50;101299.84;;;19.18;72.75
22688;BME280;11511;51.514;7.080;2022-07-24T05:39:21;101300.81;;;19.46;71.76
22688;BME280;11511;51.514;7.080;2022-07-24T05:41:48;101300.19;;;19.56;71.46
22688;BME280;11511;51.514;7.080;2022-07-24T05:44:14;101305.72;;;19.68;70.40
22688;BME280;11511;51.514;7.080;2022-07-24T05:46:39;101308.75;;;19.76;71.27
22688;BME280;11511;51.514;7.080;2022-07-24T05:49:05;101296.34;;;19.75;70.51
22688;BME280;11511;51.514;7.080;2022-07-24T05:51:32;101297.56;;;19.83;70.29
22688;BME280;11511;51.514;7.080;2022-07-24T05:53:58;101302.53;;;19.89;69.51
22688;BME280;11511;51.514;7.080;2022-07-24T05:56:23;101312.13;;;20.06;68.73
22688;BME280;11511;51.514;7.080;2022-07-24T05:58:49;101302.25;;;20.21;68.24
22688;BME280;11511;51.514;7.080;2022-07-24T06:01:15;101309.09;;;20.25;68.56
22688;BME280;11511;51.514;7.080;2022-07-24T06:03:41;101311.28;;;20.33;68.65
22688;BME280;11511;51.514;7.080;2022-07-24T06:06:07;101304.75;;;20.51;67.23
22688;BME280;11511;51.514;7.080;2022-07-24T06:08:32;101301.44;;;20.60;66.53
22688;BME280;11511;51.514;7.080;2022-07-24T06:10:58;101313.31;;;20.56;67.25
22688;BME280;11511;51.514;7.080;2022-07-24T06:13:24;101307.59;;;20.75;66.46
22688;BME280;11511;51.514;7.080;2022-07-24T06:15:50;101308.75;;;20.83;66.29
22688;BME280;11511;51.514;7.080;2022-07-24T06:18:16;101313.63;;;21.04;66.82
22688;BME280;11511;51.514;7.080;2022-07-24T06:20:42;101315.53;;;21.14;66.31
22688;BME280;11511;51.514;7.080;2022-07-24T06:23:08;101316.00;;;21.21;65.69
22688;BME280;11511;51.514;7.080;2022-07-24T06:25:33;101319.84;;;21.42;64.85
22688;BME280;11511;51.514;7.080;2022-07-24T06:27:59;101319.31;;;21.50;65.78
22688;BME280;11511;51.514;7.080;2022-07-24T06:30:27;101320.56;;;21.70;64.22
22688;BME280;11511;51.514;7.080;2022-07-24T06:32:56;101317.81;;;21.95;63.61
22688;BME280;11511;51.514;7.080;2022-07-24T06:35:22;101318.50;;;21.86;62.88
22688;BME280;11511;51.514;7.080;2022-07-24T06:37:48;101317.28;;;21.90;62.10
22688;BME280;11511;51.514;7.080;2022-07-24T06:40:18;101323.69;;;21.76;61.99
22688;BME280;11511;51.514;7.080;2022-07-24T06:42:45;101319.06;;;21.78;61.27
22688;BME280;11511;51.514;7.080;2022-07-24T06:45:11;101325.53;;;22.00;60.74
22688;BME280;11511;51.514;7.080;2022-07-24T06:47:38;101326.00;;;22.30;60.81
22688;BME280;11511;51.514;7.080;2022-07-24T06:50:04;101326.56;;;22.22;60.71
22688;BME280;11511;51.514;7.080;2022-07-24T06:52:30;101325.56;;;22.36;60.21
22688;BME280;11511;51.514;7.080;2022-07-24T06:54:56;101333.19;;;22.06;60.76
22688;BME280;11511;51.514;7.080;2022-07-24T06:57:23;101323.22;;;22.32;60.19
22688;BME280;11511;51.514;7.080;2022-07-24T06:59:52;101330.22;;;22.45;60.16
22688;BME280;11511;51.514;7.080;2022-07-24T07:02:19;101323.78;;;22.24;59.53
22688;BME280;11511;51.514;7.080;2022-07-24T07:04:47;101336.06;;;22.15;60.02
22688;BME280;11511;51.514;7.080;2022-07-24T07:07:12;101329.31;;;22.34;59.13
22688;BME280;11511;51.514;7.080;2022-07-24T07:09:40;101330.97;;;22.23;59.06
22688;BME280;11511;51.514;7.080;2022-07-24T07:12:05;101334.72;;;22.45;59.06
22688;BME280;11511;51.514;7.080;2022-07-24T07:14:32;101331.19;;;22.92;57.97
22688;BME280;11511;51.514;7.080;2022-07-24T07:16:58;101337.19;;;22.95;57.33
22688;BME280;11511;51.514;7.080;2022-07-24T07:19:23;101339.72;;;22.62;57.44
22688;BME280;11511;51.514;7.080;2022-07-24T07:21:49;101339.00;;;22.95;57.78
22688;BME280;11511;51.514;7.080;2022-07-24T07:24:15;101338.53;;;23.12;57.22
22688;BME280;11511;51.514;7.080;2022-07-24T07:26:41;101342.75;;;23.39;55.99
22688;BME280;11511;51.514;7.080;2022-07-24T07:29:07;101336.28;;;23.41;57.17
22688;BME280;11511;51.514;7.080;2022-07-24T07:31:33;101324.53;;;23.31;54.27
22688;BME280;11511;51.514;7.080;2022-07-24T07:33:59;101335.38;;;23.29;53.91
22688;BME280;11511;51.514;7.080;2022-07-24T07:36:25;101327.38;;;23.63;53.77
22688;BME280;11511;51.514;7.080;2022-07-24T07:38:51;101335.81;;;23.70;52.94
22688;BME280;11511;51.514;7.080;2022-07-24T07:41:17;101328.00;;;23.67;53.56
22688;BME280;11511;51.514;7.080;2022-07-24T07:43:45;101334.22;;;23.67;52.38
22688;BME280;11511;51.514;7.080;2022-07-24T07:46:13;101332.25;;;23.80;52.94
22688;BME280;11511;51.514;7.080;2022-07-24T07:48:39;101339.06;;;24.18;51.75
22688;BME280;11511;51.514;7.080;2022-07-24T07:51:06;101332.19;;;24.14;51.67
22688;BME280;11511;51.514;7.080;2022-07-24T07:53:33;101342.19;;;24.45;50.46
22688;BME280;11511;51.514;7.080;2022-07-24T07:55:58;101340.09;;;24.49;50.80
22688;BME280;11511;51.514;7.080;2022-07-24T07:58:25;101338.38;;;24.48;50.31
22688;BME280;11511;51.514;7.080;2022-07-24T08:00:53;101339.22;;;24.59;50.19
22688;BME280;11511;51.514;7.080;2022-07-24T08:03:19;101342.72;;;24.92;48.93
22688;BME280;11511;51.514;7.080;2022-07-24T08:05:45;101335.84;;;24.99;49.41
22688;BME280;11511;51.514;7.080;2022-07-24T08:08:11;101338.47;;;25.31;49.63
22688;BME280;11511;51.514;7.080;2022-07-24T08:10:37;101338.13;;;24.83;49.80
22688;BME280;11511;51.514;7.080;2022-07-24T08:13:03;101332.88;;;25.53;48.41
22688;BME280;11511;51.514;7.080;2022-07-24T08:15:28;101336.75;;;25.30;48.23
22688;BME280;11511;51.514;7.080;2022-07-24T08:17:58;101333.84;;;25.43;48.75
22688;BME280;11511;51.514;7.080;2022-07-24T08:20:25;101333.78;;;25.33;48.76
22688;BME280;11511;51.514;7.080;2022-07-24T08:22:51;101332.34;;;25.59;48.49
22688;BME280;11511;51.514;7.080;2022-07-24T08:25:17;101335.31;;;26.37;47.11
22688;BME280;11511;51.514;7.080;2022-07-24T08:27:43;101321.53;;;26.88;45.79
22688;BME280;11511;51.514;7.080;2022-07-24T08:30:10;101327.81;;;26.59;46.09
22688;BME280;11511;51.514;7.080;2022-07-24T08:32:36;101332.72;;;27.32;45.79
22688;BME280;11511;51.514;7.080;2022-07-24T08:35:02;101336.16;;;27.14;44.05
22688;BME280;11511;51.514;7.080;2022-07-24T08:37:28;101336.63;;;26.61;45.56
22688;BME280;11511;51.514;7.080;2022-07-24T08:39:55;101330.50;;;27.54;43.47
22688;BME280;11511;51.514;7.080;2022-07-24T08:42:21;101332.66;;;26.46;46.25
22688;BME280;11511;51.514;7.080;2022-07-24T08:44:47;101328.75;;;27.26;44.15
22688;BME280;11511;51.514;7.080;2022-07-24T08:47:14;101342.03;;;27.56;44.36
22688;BME280;11511;51.514;7.080;2022-07-24T08:49:46;101340.84;;;27.32;44.12
22688;BME280;11511;51.514;7.080;2022-07-24T08:52:13;101336.72;;;28.47;42.27
22688;BME280;11511;51.514;7.080;2022-07-24T08:54:40;101339.47;;;29.52;40.09
22688;BME280;11511;51.514;7.080;2022-07-24T08:57:06;101338.75;;;31.64;35.75
22688;BME280;11511;51.514;7.080;2022-07-24T08:59:32;101335.13;;;35.76;29.18
22688;BME280;11511;51.514;7.080;2022-07-24T09:01:58;101344.09;;;34.58;31.11
22688;BME280;11511;51.514;7.080;2022-07-24T09:09:38;101329.63;;;33.92;30.45
22688;BME280;11511;51.514;7.080;2022-07-24T09:12:15;101332.63;;;32.40;32.74
22688;BME280;11511;51.514;7.080;2022-07-24T09:14:46;101323.19;;;37.30;27.39
22688;BME280;11511;51.514;7.080;2022-07-24T09:17:16;101316.72;;;36.04;27.97
22688;BME280;11511;51.514;7.080;2022-07-24T09:27:59;101307.84;;;35.61;27.08
22688;BME280;11511;51.514;7.080;2022-07-24T09:30:36;101313.34;;;36.09;27.00
22688;BME280;11511;51.514;7.080;2022-07-24T09:35:44;101305.28;;;38.30;24.09
22688;BME280;11511;51.514;7.080;2022-07-24T09:38:13;101304.44;;;36.74;26.34
22688;BME280;11511;51.514;7.080;2022-07-24T09:40:41;101298.19;;;37.58;24.79
22688;BME280;11511;51.514;7.080;2022-07-24T09:43:30;101310.28;;;36.45;26.25
22688;BME280;11511;51.514;7.080;2022-07-24T09:46:04;101295.22;;;38.49;24.58
22688;BME280;11511;51.514;7.080;2022-07-24T09:48:33;101296.59;;;35.43;27.46
22688;BME280;11511;51.514;7.080;2022-07-24T09:51:05;101307.16;;;36.94;25.50
22688;BME280;11511;51.514;7.080;2022-07-24T09:53:33;101302.91;;;36.45;26.05
22688;BME280;11511;51.514;7.080;2022-07-24T09:58:27;101300.84;;;37.20;25.74
22688;BME280;11511;51.514;7.080;2022-07-24T10:00:57;101284.38;;;38.54;23.72
22688;BME280;11511;51.514;7.080;2022-07-24T10:03:25;101286.41;;;37.44;24.86
22688;BME280;11511;51.514;7.080;2022-07-24T10:05:58;101289.97;;;35.72;27.09
22688;BME280;11511;51.514;7.080;2022-07-24T10:08:33;101295.03;;;35.06;28.13
22688;BME280;11511;51.514;7.080;2022-07-24T10:11:00;101290.38;;;36.10;26.83
22688;BME280;11511;51.514;7.080;2022-07-24T10:13:27;101279.22;;;37.43;25.49
22688;BME280;11511;51.514;7.080;2022-07-24T10:26:46;101286.81;;;38.37;23.98
22688;BME280;11511;51.514;7.080;2022-07-24T10:29:22;101288.88;;;38.17;23.86
22688;BME280;11511;51.514;7.080;2022-07-24T10:31:52;101287.72;;;37.22;24.60
22688;BME280;11511;51.514;7.080;2022-07-24T10:36:57;101277.34;;;37.24;24.89
22688;BME280;11511;51.514;7.080;2022-07-24T10:39:37;101274.00;;;36.95;25.16
22688;BME280;11511;51.514;7.080;2022-07-24T10:42:06;101268.34;;;38.06;24.96
22688;BME280;11511;51.514;7.080;2022-07-24T10:44:32;101266.38;;;36.98;26.04
22688;BME280;11511;51.514;7.080;2022-07-24T10:49:40;101260.59;;;37.97;24.60
22688;BME280;11511;51.514;7.080;2022-07-24T11:00:36;101263.22;;;36.48;25.96
22688;BME280;11511;51.514;7.080;2022-07-24T11:03:23;101269.34;;;36.37;25.52
22688;BME280;11511;51.514;7.080;2022-07-24T11:08:52;101261.91;;;37.30;24.95
22688;BME280;11511;51.514;7.080;2022-07-24T11:11:20;101262.44;;;35.86;26.54
22688;BME280;11511;51.514;7.080;2022-07-24T11:13:54;101254.50;;;37.37;24.88
22688;BME280;11511;51.514;7.080;2022-07-24T11:16:25;101249.72;;;35.03;26.68
22688;BME280;11511;51.514;7.080;2022-07-24T11:27:04;101234.00;;;38.78;23.44
22688;BME280;11511;51.514;7.080;2022-07-24T11:29:34;101238.19;;;39.24;23.30
22688;BME280;11511;51.514;7.080;2022-07-24T11:32:12;101235.53;;;37.02;24.95
22688;BME280;11511;51.514;7.080;2022-07-24T11:34:49;101230.91;;;36.50;26.00
22688;BME280;11511;51.514;7.080;2022-07-24T11:37:15;101222.25;;;40.76;22.44
22688;BME280;11511;51.514;7.080;2022-07-24T11:39:43;101235.78;;;36.35;25.37
22688;BME280;11511;51.514;7.080;2022-07-24T11:42:13;101219.00;;;37.35;23.99
22688;BME280;11511;51.514;7.080;2022-07-24T11:44:43;101223.31;;;36.25;25.52
22688;BME280;11511;51.514;7.080;2022-07-24T11:47:19;101212.94;;;37.71;23.99
22688;BME280;11511;51.514;7.080;2022-07-24T11:49:58;101205.53;;;39.09;23.53
22688;BME280;11511;51.514;7.080;2022-07-24T11:52:30;101209.31;;;39.63;21.91
22688;BME280;11511;51.514;7.080;2022-07-24T11:55:12;101204.69;;;40.05;21.48
22688;BME280;11511;51.514;7.080;2022-07-24T11:57:40;101196.88;;;39.06;22.38
22688;BME280;11511;51.514;7.080;2022-07-24T12:00:08;101203.34;;;37.42;24.75
22688;BME280;11511;51.514;7.080;2022-07-24T12:02:52;101199.63;;;37.61;25.78
22688;BME280;11511;51.514;7.080;2022-07-24T12:05:32;101199.16;;;38.41;22.95
22688;BME280;11511;51.514;7.080;2022-07-24T12:08:01;101193.38;;;38.24;23.01
22688;BME280;11511;51.514;7.080;2022-07-24T12:10:28;101191.19;;;36.00;25.67
22688;BME280;11511;51.514;7.080;2022-07-24T12:12:55;101192.25;;;36.12;25.77
22688;BME280;11511;51.514;7.080;2022-07-24T12:15:24;101188.44;;;36.13;26.41
22688;BME280;11511;51.514;7.080;2022-07-24T12:18:03;101182.81;;;38.21;23.90
22688;BME280;11511;51.514;7.080;2022-07-24T12:20:41;101173.13;;;37.80;23.84
22688;BME280;11511;51.514;7.080;2022-07-24T12:23:10;101190.94;;;37.71;23.93
22688;BME280;11511;51.514;7.080;2022-07-24T12:25:36;101180.84;;;36.94;24.37
22688;BME280;11511;51.514;7.080;2022-07-24T12:28:15;101171.03;;;37.31;24.31
22688;BME280;11511;51.514;7.080;2022-07-24T12:30:43;101163.34;;;36.22;25.66
22688;BME280;11511;51.514;7.080;2022-07-24T12:33:20;101158.31;;;38.38;23.40
22688;BME280;11511;51.514;7.080;2022-07-24T12:36:06;101166.31;;;36.80;24.40
22688;BME280;11511;51.514;7.080;2022-07-24T12:41:17;101155.25;;;37.07;24.96
22688;BME280;11511;51.514;7.080;2022-07-24T12:44:00;101149.53;;;37.08;24.54
22688;BME280;11511;51.514;7.080;2022-07-24T12:46:34;101145.00;;;38.03;23.63
22688;BME280;11511;51.514;7.080;2022-07-24T12:49:03;101146.41;;;37.87;24.14
22688;BME280;11511;51.514;7.080;2022-07-24T12:54:19;101137.19;;;38.32;22.69
22688;BME280;11511;51.514;7.080;2022-07-24T12:56:47;101126.72;;;38.65;22.55
22688;BME280;11511;51.514;7.080;2022-07-24T12:59:33;101138.88;;;35.27;26.46
22688;BME280;11511;51.514;7.080;2022-07-24T13:02:10;101131.63;;;35.13;26.65
22688;BME280;11511;51.514;7.080;2022-07-24T13:04:50;101130.06;;;37.16;24.12
22688;BME280;11511;51.514;7.080;2022-07-24T13:07:21;101114.41;;;38.86;22.21
22688;BME280;11511;51.514;7.080;2022-07-24T13:09:48;101114.97;;;36.87;25.46
22688;BME280;11511;51.514;7.080;2022-07-24T13:12:15;101108.06;;;37.68;24.07
22688;BME280;11511;51.514;7.080;2022-07-24T13:14:41;101103.34;;;36.92;25.43
22688;BME280;11511;51.514;7.080;2022-07-24T13:17:12;101113.00;;;37.01;24.47
22688;BME280;11511;51.514;7.080;2022-07-24T13:19:39;101106.91;;;35.41;26.43
22688;BME280;11511;51.514;7.080;2022-07-24T13:22:05;101103.03;;;36.36;24.94
22688;BME280;11511;51.514;7.080;2022-07-24T13:24:31;101101.97;;;36.04;25.08
22688;BME280;11511;51.514;7.080;2022-07-24T13:26:59;101097.53;;;36.03;26.02
22688;BME280;11511;51.514;7.080;2022-07-24T13:29:25;101086.34;;;37.53;23.93
22688;BME280;11511;51.514;7.080;2022-07-24T13:31:51;101091.97;;;36.69;25.05
22688;BME280;11511;51.514;7.080;2022-07-24T13:34:21;101083.81;;;37.20;23.75
22688;BME280;11511;51.514;7.080;2022-07-24T13:36:49;101080.84;;;37.15;23.75
22688;BME280;11511;51.514;7.080;2022-07-24T13:39:15;101079.09;;;36.76;23.88
22688;BME280;11511;51.514;7.080;2022-07-24T13:41:42;101082.69;;;36.83;24.65
22688;BME280;11511;51.514;7.080;2022-07-24T13:44:08;101071.75;;;36.63;24.03
22688;BME280;11511;51.514;7.080;2022-07-24T13:46:35;101077.84;;;34.92;26.51